Time;durP1;ratioP1;P1;durP2;ratioP2;P2;SDS_P1;SDS_P2;PMS_P1;PMS_P2;Temp;Humidity;BMP_temperature;BMP_pressure;BME280_temperature;BME280_humidity;BME280_pressure;Samples;Min_cycle;Max_cycle;Signal;HPM_P1;HPM_P2
2023/09/07 00:01:30;;;;;;;50.67;8.07;;;27.90;99.90;;;;;;4941227;29;20135;-48
2023/09/07 00:03:56;;;;;;;51.88;9.18;;;27.90;99.90;;;;;;4941844;29;20023;-48
2023/09/07 00:06:22;;;;;;;55.10;7.88;;;27.80;99.90;;;;;;4935815;29;20032;-48
2023/09/07 00:08:48;;;;;;;48.22;9.88;;;27.80;99.90;;;;;;4937929;29;20046;-49
2023/09/07 00:11:13;;;;;;;58.25;9.73;;;27.80;99.90;;;;;;4953034;28;20034;-48
2023/09/07 00:13:39;;;;;;;47.50;7.57;;;27.80;99.90;;;;;;4965737;28;20172;-46
2023/09/07 00:16:07;;;;;;;50.83;8.43;;;27.80;99.90;;;;;;4951167;28;20023;-48
2023/09/07 00:18:33;;;;;;;51.67;8.32;;;27.80;99.90;;;;;;4946726;28;20030;-48
2023/09/07 00:21:00;;;;;;;50.72;9.88;;;27.80;99.90;;;;;;4950942;28;20047;-47
2023/09/07 00:23:26;;;;;;;55.35;10.80;;;27.80;99.90;;;;;;4950484;29;20399;-48
2023/09/07 00:25:53;;;;;;;41.75;8.30;;;27.80;99.90;;;;;;4953224;28;20040;-50
2023/09/07 00:28:18;;;;;;;57.58;9.20;;;27.80;99.90;;;;;;4953728;28;20020;-49
2023/09/07 00:30:44;;;;;;;52.60;9.48;;;27.80;99.90;;;;;;4953729;29;20054;-49
2023/09/07 00:33:11;;;;;;;52.25;9.13;;;27.90;99.90;;;;;;4953974;28;20460;-48
2023/09/07 00:35:36;;;;;;;67.40;9.02;;;27.90;99.90;;;;;;4953792;28;20031;-49
2023/09/07 00:38:03;;;;;;;47.70;8.43;;;27.90;99.90;;;;;;4953509;29;20034;-49
2023/09/07 00:40:29;;;;;;;55.65;9.10;;;28.00;99.90;;;;;;4954018;29;20484;-49
2023/09/07 00:42:55;;;;;;;65.80;10.43;;;28.00;99.90;;;;;;4953381;28;20031;-48
2023/09/07 00:45:20;;;;;;;54.40;8.35;;;28.00;99.90;;;;;;4953071;28;20046;-48
2023/09/07 00:47:47;;;;;;;43.45;8.70;;;28.00;99.90;;;;;;4947001;28;20115;-47
2023/09/07 00:50:14;;;;;;;66.18;8.73;;;28.10;99.90;;;;;;4952684;29;20032;-48
2023/09/07 00:52:42;;;;;;;51.60;7.60;;;28.10;99.90;;;;;;4952202;29;20052;-49
2023/09/07 00:55:10;;;;;;;47.70;7.85;;;28.00;99.90;;;;;;4951628;28;20480;-49
2023/09/07 00:57:36;;;;;;;;;;;28.10;99.90;;;;;;4952572;28;20062;-48
2023/09/07 01:02:44;;;;;;;35.83;8.60;;;28.10;99.90;;;;;;5005121;28;20109;-48
2023/09/07 01:05:11;;;;;;;33.55;8.30;;;28.10;99.90;;;;;;5007672;28;20025;-47
2023/09/07 01:07:57;;;;;;;46.13;8.73;;;28.10;99.90;;;;;;5010194;28;20109;-48
2023/09/07 01:10:23;;;;;;;46.92;8.60;;;28.10;99.90;;;;;;5006373;28;20030;-48
2023/09/07 01:12:49;;;;;;;46.55;7.68;;;28.20;99.90;;;;;;5008166;28;20392;-48
2023/09/07 01:15:14;;;;;;;54.97;8.88;;;28.20;99.90;;;;;;5005646;28;20045;-48
2023/09/07 01:17:41;;;;;;;60.45;10.25;;;28.20;99.90;;;;;;5003343;28;20088;-48
2023/09/07 01:20:10;;;;;;;46.05;8.27;;;28.10;99.90;;;;;;4996734;28;20073;-47
2023/09/07 01:22:36;;;;;;;47.45;7.90;;;28.20;99.90;;;;;;5011068;28;20025;-47
2023/09/07 01:25:04;;;;;;;58.40;8.90;;;28.20;99.90;;;;;;5012682;28;20033;-48
2023/09/07 01:27:30;;;;;;;41.40;8.40;;;28.20;99.90;;;;;;5010978;28;20345;-50
2023/09/07 01:29:57;;;;;;;51.80;10.00;;;28.20;99.90;;;;;;5012497;28;20030;-48
2023/09/07 01:32:23;;;;;;;40.78;6.88;;;28.20;99.90;;;;;;5009448;28;20026;-48
2023/09/07 01:34:49;;;;;;;51.05;8.75;;;28.20;99.90;;;;;;5008356;28;20035;-48
2023/09/07 01:37:14;;;;;;;34.67;7.22;;;28.10;99.90;;;;;;5014220;28;20451;-48
2023/09/07 01:39:40;;;;;;;32.33;7.32;;;28.20;99.90;;;;;;5014767;28;20508;-49
2023/09/07 01:42:06;;;;;;;44.17;9.55;;;28.20;99.90;;;;;;5014876;28;20114;-49
2023/09/07 01:44:32;;;;;;;49.40;7.55;;;28.10;99.90;;;;;;5013038;28;20018;-49
2023/09/07 01:46:57;;;;;;;56.55;8.45;;;28.10;99.90;;;;;;5030028;28;20030;-49
2023/09/07 01:49:23;;;;;;;47.15;6.63;;;28.10;99.90;;;;;;5008125;28;20537;-48
2023/09/07 01:51:52;;;;;;;43.70;7.90;;;28.10;99.90;;;;;;5013305;28;20390;-49
2023/09/07 01:54:18;;;;;;;47.00;7.20;;;28.10;99.90;;;;;;5025780;28;20026;-48
2023/09/07 01:56:44;;;;;;;49.00;8.32;;;28.00;99.90;;;;;;5012406;28;20417;-48
2023/09/07 01:59:09;;;;;;;40.20;8.07;;;28.10;99.90;;;;;;5008930;28;20061;-48
2023/09/07 02:01:37;;;;;;;38.20;9.13;;;28.10;99.90;;;;;;5010958;28;20112;-49
2023/09/07 02:04:03;;;;;;;;;;;28.00;99.90;;;;;;5011106;28;20101;-48
2023/09/07 02:06:29;;;;;;;40.63;8.27;;;28.10;99.90;;;;;;5010361;28;20051;-48
2023/09/07 02:08:54;;;;;;;49.65;7.95;;;28.00;99.90;;;;;;5011365;28;20112;-49
2023/09/07 02:11:20;;;;;;;49.28;8.80;;;28.00;99.90;;;;;;5011336;28;20022;-49
2023/09/07 02:13:47;;;;;;;44.25;8.85;;;28.00;99.90;;;;;;5007127;28;20018;-48
2023/09/07 02:16:13;;;;;;;46.30;7.30;;;28.00;99.90;;;;;;5009609;28;20022;-48
2023/09/07 02:18:43;;;;;;;51.95;7.82;;;28.00;99.90;;;;;;5002123;28;20038;-48
2023/09/07 02:21:09;;;;;;;40.45;7.72;;;28.00;99.90;;;;;;5004792;28;20030;-48
2023/09/07 02:23:39;;;;;;;46.53;9.43;;;28.00;99.90;;;;;;5002079;28;20434;-48
2023/09/07 02:26:05;;;;;;;49.35;7.35;;;28.00;99.90;;;;;;5010444;28;20029;-49
2023/09/07 02:28:31;;;;;;;38.20;7.15;;;28.00;99.90;;;;;;5011567;28;20021;-48
2023/09/07 02:31:03;;;;;;;40.65;7.47;;;28.00;99.90;;;;;;5007042;28;20101;-48
2023/09/07 02:33:29;;;;;;;54.20;6.78;;;28.00;99.90;;;;;;5007387;28;20066;-48
2023/09/07 02:35:55;;;;;;;45.35;8.13;;;28.00;99.90;;;;;;5008058;28;20054;-49
2023/09/07 02:38:21;;;;;;;46.28;8.77;;;28.00;99.90;;;;;;5012386;28;20389;-48
2023/09/07 02:40:47;;;;;;;39.20;8.02;;;28.00;99.90;;;;;;5009327;28;20096;-48
2023/09/07 02:43:13;;;;;;;41.47;7.50;;;28.00;99.90;;;;;;5009962;28;20026;-49
2023/09/07 02:45:39;;;;;;;35.50;7.47;;;28.00;99.90;;;;;;5007156;28;20036;-48
2023/09/07 02:48:05;;;;;;;48.80;7.72;;;28.00;99.90;;;;;;5007264;28;20397;-49
2023/09/07 02:50:33;;;;;;;47.72;8.13;;;28.00;99.90;;;;;;5005553;28;20109;-48
2023/09/07 02:53:00;;;;;;;49.85;7.57;;;28.00;99.90;;;;;;5002425;28;20029;-48
2023/09/07 02:55:29;;;;;;;29.02;6.18;;;28.00;99.90;;;;;;5002060;28;20034;-48
2023/09/07 02:57:56;;;;;;;38.78;6.68;;;28.00;99.90;;;;;;5007264;28;20029;-49
2023/09/07 03:00:22;;;;;;;42.95;7.13;;;28.00;99.90;;;;;;5011897;28;20038;-48
2023/09/07 03:02:48;;;;;;;39.33;7.35;;;28.00;99.90;;;;;;5009349;28;20095;-48
2023/09/07 03:05:17;;;;;;;51.83;6.93;;;28.00;99.90;;;;;;5007489;28;20026;-49
2023/09/07 03:07:45;;;;;;;35.85;6.53;;;28.00;99.90;;;;;;5023577;28;20026;-49
2023/09/07 03:10:11;;;;;;;38.00;7.65;;;28.00;99.90;;;;;;5006781;28;20019;-48
2023/09/07 03:12:37;;;;;;;33.92;7.68;;;28.00;99.90;;;;;;5004776;28;20052;-48
2023/09/07 03:15:04;;;;;;;45.70;7.32;;;28.00;99.90;;;;;;4998550;28;20027;-48
2023/09/07 03:17:30;;;;;;;34.40;6.47;;;28.00;99.90;;;;;;5010072;28;20040;-48
2023/09/07 03:19:56;;;;;;;53.55;8.48;;;28.00;99.90;;;;;;5012867;28;20513;-48
2023/09/07 03:22:23;;;;;;;38.65;6.28;;;28.00;99.90;;;;;;5012870;28;20392;-49
2023/09/07 03:24:50;;;;;;;38.75;6.45;;;28.00;99.90;;;;;;5012981;28;20382;-49
2023/09/07 03:27:16;;;;;;;40.63;7.30;;;28.00;99.90;;;;;;5012877;28;20432;-48
2023/09/07 03:29:42;;;;;;;31.27;6.30;;;28.00;99.90;;;;;;5012465;28;20026;-49
2023/09/07 03:32:08;;;;;;;40.47;6.65;;;28.00;99.90;;;;;;5011193;28;20117;-49
2023/09/07 03:34:34;;;;;;;33.95;6.57;;;28.00;99.90;;;;;;5012840;28;20021;-49
2023/09/07 03:37:00;;;;;;;31.10;6.93;;;28.00;99.90;;;;;;5011709;28;20018;-49
2023/09/07 03:39:26;;;;;;;38.78;6.40;;;28.00;99.90;;;;;;5012217;28;20036;-49
2023/09/07 03:41:52;;;;;;;48.70;7.68;;;28.00;99.90;;;;;;5012734;28;20584;-49
2023/09/07 03:44:17;;;;;;;36.10;6.70;;;28.00;99.90;;;;;;5010990;28;20022;-49
2023/09/07 03:46:43;;;;;;;32.70;7.15;;;28.00;99.90;;;;;;5012256;28;20429;-49
2023/09/07 03:49:09;;;;;;;33.15;7.10;;;27.90;99.90;;;;;;5012292;28;20410;-49
2023/09/07 03:51:35;;;;;;;46.70;7.93;;;27.90;99.90;;;;;;5012516;28;20026;-49
2023/09/07 03:54:01;;;;;;;31.88;6.10;;;28.00;99.90;;;;;;5012170;28;20540;-49
2023/09/07 03:56:26;;;;;;;31.75;7.38;;;28.00;99.90;;;;;;5001128;28;20067;-48
2023/09/07 03:58:52;;;;;;;40.60;7.30;;;27.90;99.90;;;;;;5011796;28;20103;-49
2023/09/07 04:01:18;;;;;;;37.08;6.32;;;27.90;99.90;;;;;;5012618;28;20200;-49
2023/09/07 04:03:44;;;;;;;40.65;7.60;;;27.90;99.90;;;;;;5012476;28;20025;-49
2023/09/07 04:06:09;;;;;;;34.35;8.38;;;28.00;99.90;;;;;;5012080;28;20052;-48
2023/09/07 04:08:35;;;;;;;38.78;7.85;;;27.90;99.90;;;;;;5010132;28;20024;-49
2023/09/07 04:11:05;;;;;;;35.00;6.88;;;28.00;99.90;;;;;;4999609;28;20031;-49
2023/09/07 04:13:32;;;;;;;27.63;5.70;;;28.00;99.90;;;;;;5008641;28;20022;-48
2023/09/07 04:15:58;;;;;;;49.42;7.45;;;27.90;99.90;;;;;;5011262;28;20025;-49
2023/09/07 04:18:24;;;;;;;28.30;7.22;;;27.90;99.90;;;;;;5005934;28;20032;-49
2023/09/07 04:20:49;;;;;;;46.50;8.88;;;27.90;99.90;;;;;;5012126;28;20116;-49
2023/09/07 04:23:16;;;;;;;29.00;7.40;;;27.90;99.90;;;;;;5011787;28;20097;-48
2023/09/07 04:25:41;;;;;;;45.47;8.13;;;27.90;99.90;;;;;;5012253;28;20026;-49
2023/09/07 04:28:08;;;;;;;40.50;7.75;;;27.90;99.90;;;;;;5011936;28;20026;-48
2023/09/07 04:30:43;;;;;;;31.95;6.95;;;27.80;99.90;;;;;;5010188;28;20049;-49
2023/09/07 04:33:09;;;;;;;46.30;7.88;;;27.80;99.90;;;;;;4996207;28;20018;-49
2023/09/07 04:35:34;;;;;;;37.33;8.70;;;27.80;99.90;;;;;;5012119;28;20105;-49
2023/09/07 04:38:00;;;;;;;42.63;8.68;;;27.80;99.90;;;;;;5011870;28;20442;-48
2023/09/07 04:40:26;;;;;;;39.47;7.50;;;27.80;99.90;;;;;;5011472;28;20045;-48
2023/09/07 04:42:52;;;;;;;31.40;6.63;;;27.80;99.90;;;;;;5011797;28;20101;-49
2023/09/07 04:45:17;;;;;;;34.78;7.57;;;27.80;99.90;;;;;;5011711;28;20102;-49
2023/09/07 04:47:43;;;;;;;42.28;7.97;;;27.80;99.90;;;;;;5012231;28;20029;-49
2023/09/07 04:50:10;;;;;;;36.35;6.75;;;27.80;99.90;;;;;;5011291;28;20018;-49
2023/09/07 04:52:36;;;;;;;33.75;6.47;;;27.90;99.90;;;;;;5012349;28;20102;-49
2023/09/07 04:55:02;;;;;;;34.35;6.60;;;27.90;99.90;;;;;;5011980;28;20378;-49
2023/09/07 04:57:30;;;;;;;37.03;7.55;;;27.90;99.90;;;;;;5012721;28;20473;-48
2023/09/07 04:59:56;;;;;;;35.13;7.05;;;27.90;99.90;;;;;;5015666;28;20111;-48
2023/09/07 05:02:22;;;;;;;33.50;6.45;;;27.90;99.90;;;;;;5014773;28;20469;-48
2023/09/07 05:04:47;;;;;;;44.47;7.18;;;28.00;99.90;;;;;;5014699;28;20109;-48
2023/09/07 05:07:13;;;;;;;31.73;5.85;;;28.00;99.90;;;;;;5015472;28;20032;-48
2023/09/07 05:09:39;;;;;;;41.83;7.68;;;28.00;99.90;;;;;;5014828;28;20462;-48
2023/09/07 05:12:05;;;;;;;35.28;8.13;;;28.00;99.90;;;;;;5014832;28;20059;-48
2023/09/07 05:14:31;;;;;;;44.00;7.43;;;28.00;99.90;;;;;;5015477;28;20056;-50
2023/09/07 05:16:57;;;;;;;36.47;7.78;;;28.00;99.90;;;;;;5015601;28;20053;-49
2023/09/07 05:19:23;;;;;;;36.72;6.40;;;28.00;99.90;;;;;;5015501;28;20105;-49
2023/09/07 05:21:49;;;;;;;40.85;7.35;;;28.00;99.90;;;;;;5015473;28;20554;-49
2023/09/07 05:24:15;;;;;;;44.20;8.50;;;28.00;99.90;;;;;;5015003;28;20045;-48
2023/09/07 05:26:43;;;;;;;47.30;8.68;;;27.90;99.90;;;;;;5015219;28;20026;-48
2023/09/07 05:29:09;;;;;;;49.38;9.13;;;27.90;99.90;;;;;;5015490;28;20101;-49
2023/09/07 05:31:35;;;;;;;49.88;7.70;;;27.90;99.90;;;;;;5015526;28;20028;-48
2023/09/07 05:34:00;;;;;;;55.40;9.88;;;27.80;99.90;;;;;;5014968;28;20110;-48
2023/09/07 05:36:27;;;;;;;43.72;8.23;;;27.80;99.90;;;;;;5015251;28;20440;-48
2023/09/07 05:38:53;;;;;;;47.47;8.20;;;27.80;99.90;;;;;;5014474;28;20026;-49
2023/09/07 05:41:19;;;;;;;55.83;10.30;;;27.70;99.90;;;;;;5014643;28;20436;-49
2023/09/07 05:43:45;;;;;;;57.85;8.65;;;27.70;99.90;;;;;;5014847;28;20029;-49
2023/09/07 05:46:11;;;;;;;39.17;7.55;;;27.70;99.90;;;;;;5014788;28;20080;-49
2023/09/07 05:48:36;;;;;;;44.65;8.98;;;27.60;99.90;;;;;;5015002;28;20021;-49
2023/09/07 05:51:03;;;;;;;53.80;9.05;;;27.60;99.90;;;;;;5014965;28;20085;-49
2023/09/07 05:53:29;;;;;;;49.33;8.55;;;27.60;99.90;;;;;;5014603;28;20025;-48
2023/09/07 05:55:55;;;;;;;48.78;9.38;;;27.60;99.90;;;;;;5014862;28;20049;-49
2023/09/07 05:58:20;;;;;;;45.67;8.85;;;27.60;99.90;;;;;;5014685;28;20097;-49
2023/09/07 06:00:46;;;;;;;47.13;8.73;;;27.70;99.90;;;;;;5014504;28;20053;-49
2023/09/07 06:03:13;;;;;;;52.80;9.43;;;27.60;99.90;;;;;;5014316;28;20149;-48
2023/09/07 06:05:39;;;;;;;48.95;8.40;;;27.60;99.90;;;;;;5014858;28;20025;-49
2023/09/07 06:08:07;;;;;;;43.88;8.50;;;27.60;99.90;;;;;;5014350;28;20076;-48
2023/09/07 06:10:33;;;;;;;61.25;9.05;;;27.60;99.90;;;;;;5014280;28;20054;-48
2023/09/07 06:12:59;;;;;;;52.25;8.32;;;27.70;99.90;;;;;;5014104;28;20533;-48
2023/09/07 06:15:26;;;;;;;51.05;8.65;;;27.70;99.90;;;;;;5012571;28;20113;-48
2023/09/07 06:17:52;;;;;;;51.08;9.70;;;27.70;99.90;;;;;;5014287;28;20050;-49
2023/09/07 06:20:19;;;;;;;61.10;9.55;;;27.60;99.90;;;;;;5029100;28;20453;-49
2023/09/07 06:22:45;;;;;;;47.95;8.95;;;27.70;99.90;;;;;;5014380;28;20050;-49
2023/09/07 06:25:11;;;;;;;67.65;10.75;;;27.70;99.90;;;;;;5013937;28;20068;-49
2023/09/07 06:27:37;;;;;;;55.55;8.48;;;27.70;99.90;;;;;;5014192;28;20381;-49
2023/09/07 06:30:07;;;;;;;53.57;8.53;;;27.70;99.90;;;;;;5013805;28;20026;-48
2023/09/07 06:32:32;;;;;;;56.17;9.93;;;27.70;99.90;;;;;;5013845;28;20037;-48
2023/09/07 06:34:58;;;;;;;62.97;9.80;;;27.60;99.90;;;;;;5013598;28;20033;-48
2023/09/07 06:37:24;;;;;;;56.47;10.55;;;27.60;99.90;;;;;;5013898;28;20465;-48
2023/09/07 06:39:50;;;;;;;47.00;8.93;;;27.60;99.90;;;;;;5013214;28;20057;-48
2023/09/07 06:42:16;;;;;;;60.55;10.30;;;27.60;99.90;;;;;;5013446;28;20049;-49
2023/09/07 06:44:42;;;;;;;64.55;9.30;;;27.60;99.90;;;;;;5013537;28;20477;-49
2023/09/07 06:47:08;;;;;;;58.80;9.15;;;27.60;99.90;;;;;;5013827;28;20029;-49
2023/09/07 06:49:34;;;;;;;53.95;9.85;;;27.60;99.90;;;;;;5013330;28;20044;-49
2023/09/07 06:52:00;;;;;;;67.10;10.82;;;27.60;99.90;;;;;;5028693;28;20030;-49
2023/09/07 06:54:28;;;;;;;58.63;11.60;;;27.50;99.90;;;;;;5013586;28;20109;-48
2023/09/07 06:56:54;;;;;;;53.17;8.32;;;27.50;99.90;;;;;;5013523;28;20026;-49
2023/09/07 06:59:20;;;;;;;56.00;9.73;;;27.50;99.90;;;;;;5012822;28;20508;-48
2023/09/07 07:01:46;;;;;;;76.15;11.20;;;27.50;99.90;;;;;;5025734;28;20042;-49
2023/09/07 07:04:11;;;;;;;66.97;9.45;;;27.50;99.90;;;;;;5012243;28;20108;-48
2023/09/07 07:06:37;;;;;;;57.33;9.52;;;27.50;99.90;;;;;;5010902;28;20029;-49
2023/09/07 07:09:03;;;;;;;52.00;8.80;;;27.50;99.90;;;;;;5012848;28;20393;-49
2023/09/07 07:11:29;;;;;;;62.30;9.80;;;27.50;99.90;;;;;;5011374;28;20537;-48
2023/09/07 07:13:55;;;;;;;60.42;10.02;;;27.50;99.90;;;;;;5012552;28;20104;-48
2023/09/07 07:16:21;;;;;;;59.17;9.95;;;27.50;99.90;;;;;;5012784;28;20454;-48
2023/09/07 07:18:47;;;;;;;72.57;10.57;;;27.50;99.90;;;;;;5012297;28;20057;-48
2023/09/07 07:21:12;;;;;;;65.20;11.60;;;27.40;99.90;;;;;;5011112;28;20029;-48
2023/09/07 07:23:38;;;;;;;52.45;9.57;;;27.40;99.90;;;;;;5012571;28;20022;-48
2023/09/07 07:26:04;;;;;;;60.42;11.68;;;27.40;99.90;;;;;;4997472;28;20071;-48
2023/09/07 07:28:30;;;;;;;54.70;9.02;;;27.30;99.90;;;;;;5012236;28;20382;-47
2023/09/07 07:30:56;;;;;;;56.65;11.05;;;27.30;99.90;;;;;;5010846;28;20026;-48
2023/09/07 07:33:22;;;;;;;65.65;9.73;;;27.30;99.90;;;;;;5011587;28;20030;-47
2023/09/07 07:35:48;;;;;;;51.25;10.77;;;27.20;99.90;;;;;;5012773;28;20030;-48
2023/09/07 07:38:14;;;;;;;60.42;10.45;;;27.20;99.90;;;;;;5012378;28;20026;-47
2023/09/07 07:40:40;;;;;;;50.13;10.20;;;27.20;99.90;;;;;;5012426;28;20473;-48
2023/09/07 07:43:07;;;;;;;49.55;8.73;;;27.20;99.90;;;;;;5011054;28;20409;-48
2023/09/07 07:45:36;;;;;;;43.07;7.97;;;27.20;99.90;;;;;;5012741;28;20018;-48
2023/09/07 07:48:05;;;;;;;36.70;7.65;;;27.20;99.90;;;;;;5012016;28;20275;-48
2023/09/07 07:50:31;;;;;;;48.65;8.48;;;27.30;99.90;;;;;;5012370;28;20079;-48
2023/09/07 07:52:57;;;;;;;39.72;8.00;;;27.40;99.90;;;;;;5011931;28;20037;-48
2023/09/07 07:55:23;;;;;;;45.08;9.68;;;27.50;99.90;;;;;;5012299;28;20022;-49
2023/09/07 07:57:48;;;;;;;39.90;8.27;;;27.50;99.90;;;;;;5012534;28;20028;-49
2023/09/07 08:00:14;;;;;;;39.22;9.68;;;27.50;99.90;;;;;;5012394;28;20470;-49
2023/09/07 08:02:40;;;;;;;44.53;7.85;;;27.60;99.90;;;;;;5012347;28;20053;-49
2023/09/07 08:05:06;;;;;;;37.15;8.15;;;27.60;99.90;;;;;;5012096;28;20795;-50
2023/09/07 08:07:32;;;;;;;42.80;7.88;;;27.70;99.90;;;;;;5012225;28;20026;-49
2023/09/07 08:09:58;;;;;;;43.17;9.35;;;27.70;99.90;;;;;;5012074;28;20022;-49
2023/09/07 08:12:24;;;;;;;36.30;7.50;;;27.70;99.90;;;;;;5012238;28;20037;-49
2023/09/07 08:14:50;;;;;;;40.55;7.68;;;27.80;99.90;;;;;;5012273;28;20030;-49
2023/09/07 08:17:15;;;;;;;36.95;7.70;;;27.80;99.90;;;;;;5012582;28;20030;-49
2023/09/07 08:19:43;;;;;;;32.70;8.13;;;27.80;99.90;;;;;;5011563;28;20026;-49
2023/09/07 08:22:09;;;;;;;;;;;27.90;99.90;;;;;;5011475;28;20502;-49
2023/09/07 08:24:35;;;;;;;29.65;8.02;;;27.90;99.90;;;;;;5012266;28;19912;-49
2023/09/07 08:27:01;;;;;;;39.60;7.57;;;27.90;99.90;;;;;;5027414;28;20026;-49
2023/09/07 08:29:27;;;;;;;26.35;6.80;;;28.00;99.90;;;;;;5011233;28;20051;-48
2023/09/07 08:31:57;;;;;;;40.42;8.80;;;28.00;99.90;;;;;;5011544;28;20037;-48
2023/09/07 08:34:23;;;;;;;32.70;7.57;;;28.00;99.90;;;;;;5015838;28;20025;-48
2023/09/07 08:36:53;;;;;;;33.40;8.57;;;28.10;99.90;;;;;;5031112;28;20029;-49
2023/09/07 08:39:20;;;;;;;33.65;8.25;;;28.00;99.90;;;;;;5015916;28;20026;-49
2023/09/07 08:41:47;;;;;;;39.47;7.53;;;28.10;99.90;;;;;;5016136;28;20544;-49
2023/09/07 08:44:19;;;;;;;26.73;6.15;;;28.10;99.90;;;;;;5015546;28;20017;-49
2023/09/07 08:46:45;;;;;;;26.02;6.93;;;28.10;99.90;;;;;;5016097;28;20025;-50
2023/09/07 08:49:11;;;;;;;26.23;7.93;;;28.20;99.90;;;;;;5015593;28;20033;-48
2023/09/07 08:51:38;;;;;;;32.60;7.25;;;28.10;99.90;;;;;;5015688;28;20018;-48
2023/09/07 08:54:05;;;;;;;33.28;7.22;;;28.20;99.90;;;;;;5015541;28;20022;-50
2023/09/07 08:56:31;;;;;;;29.73;7.15;;;28.20;99.90;;;;;;5014107;28;20030;-49
2023/09/07 08:58:57;;;;;;;30.00;6.18;;;28.30;99.90;;;;;;5014301;28;20037;-49
2023/09/07 09:01:23;;;;;;;28.75;6.65;;;28.20;99.90;;;;;;5015043;28;20054;-49
2023/09/07 09:03:50;;;;;;;22.67;5.20;;;28.30;99.90;;;;;;5014438;28;20022;-49
2023/09/07 09:06:24;;;;;;;23.65;7.88;;;28.30;99.90;;;;;;5031085;28;20474;-49
2023/09/07 09:08:53;;;;;;;23.42;6.78;;;28.30;99.90;;;;;;5015151;28;20026;-49
2023/09/07 09:11:20;;;;;;;24.15;7.28;;;28.30;99.90;;;;;;5014836;28;20375;-49
2023/09/07 09:13:49;;;;;;;21.77;6.93;;;28.30;99.90;;;;;;5015188;28;20058;-49
2023/09/07 09:16:15;;;;;;;31.38;5.55;;;28.30;99.90;;;;;;5014088;28;20145;-50
2023/09/07 09:18:55;;;;;;;31.27;6.93;;;28.40;99.90;;;;;;5015300;28;20032;-50
2023/09/07 09:21:22;;;;;;;30.65;5.70;;;28.40;99.90;;;;;;5014555;28;20390;-50
2023/09/07 09:23:50;;;;;;;34.72;6.78;;;28.40;99.90;;;;;;5015140;28;20113;-49
2023/09/07 09:26:16;;;;;;;32.78;6.20;;;28.40;99.90;;;;;;5015264;28;20029;-49
2023/09/07 09:28:45;;;;;;;24.70;5.10;;;28.40;99.90;;;;;;5015209;28;20041;-49
2023/09/07 09:31:12;;;;;;;20.48;4.97;;;28.30;99.90;;;;;;5014664;28;20440;-49
2023/09/07 09:33:39;;;;;;;31.53;4.93;;;28.30;99.90;;;;;;5013545;28;20033;-49
2023/09/07 09:36:06;;;;;;;26.33;6.28;;;28.20;99.90;;;;;;5014705;28;20058;-50
2023/09/07 09:38:32;;;;;;;24.90;5.90;;;28.20;99.90;;;;;;5014732;28;20038;-49
2023/09/07 09:40:59;;;;;;;29.42;7.28;;;28.20;99.90;;;;;;5014786;28;20033;-49
2023/09/07 09:43:27;;;;;;;19.10;3.83;;;28.10;99.90;;;;;;5013909;28;20022;-50
2023/09/07 09:45:53;;;;;;;24.15;4.97;;;28.10;99.90;;;;;;5014531;28;20034;-50
2023/09/07 09:48:20;;;;;;;23.27;4.85;;;28.00;99.90;;;;;;5015103;28;20097;-50
2023/09/07 09:50:50;;;;;;;27.58;4.30;;;28.00;99.90;;;;;;5014275;28;20030;-50
2023/09/07 09:53:18;;;;;;;18.45;4.13;;;28.00;99.90;;;;;;5014256;28;20356;-52
2023/09/07 09:55:53;;;;;;;21.58;4.90;;;28.00;99.90;;;;;;5014606;28;20025;-51
2023/09/07 09:58:19;;;;;;;30.50;11.95;;;28.00;99.90;;;;;;5014600;28;20496;-50
2023/09/07 10:00:48;;;;;;;25.98;6.38;;;28.00;99.90;;;;;;5013911;28;20050;-50
2023/09/07 10:03:26;;;;;;;26.77;5.10;;;28.00;99.90;;;;;;5014178;28;20493;-49
2023/09/07 10:05:52;;;;;;;21.38;5.38;;;28.10;99.90;;;;;;5014616;28;20034;-49
2023/09/07 10:08:22;;;;;;;26.63;6.10;;;28.10;99.90;;;;;;5014602;28;20022;-48
2023/09/07 10:10:53;;;;;;;22.73;5.22;;;28.10;99.90;;;;;;5014422;28;20053;-49
2023/09/07 10:13:30;;;;;;;22.48;5.43;;;28.10;99.90;;;;;;5014183;28;20084;-49
2023/09/07 10:16:10;;;;;;;26.15;6.18;;;28.20;99.90;;;;;;5014073;28;20037;-48
2023/09/07 10:18:37;;;;;;;23.63;4.88;;;28.30;99.90;;;;;;5014122;28;20025;-49
2023/09/07 10:21:04;;;;;;;23.83;4.43;;;28.30;99.90;;;;;;5013546;28;20033;-48
2023/09/07 10:23:37;;;;;;;23.60;4.63;;;28.30;99.90;;;;;;5013787;28;20040;-48
2023/09/07 10:26:04;;;;;;;22.38;5.35;;;28.40;99.90;;;;;;5013810;28;20025;-48
2023/09/07 10:28:30;;;;;;;18.33;4.55;;;28.40;99.90;;;;;;5012535;28;20121;-49
2023/09/07 10:31:04;;;;;;;11.80;3.67;;;28.40;99.90;;;;;;5012412;28;20053;-48
2023/09/07 10:33:35;;;;;;;24.50;4.95;;;28.40;99.90;;;;;;5028941;28;20026;-49
2023/09/07 10:36:04;;;;;;;12.02;3.13;;;28.40;99.90;;;;;;5012445;28;20026;-49
2023/09/07 10:38:36;;;;;;;12.57;3.90;;;28.50;99.90;;;;;;5013767;28;20109;-49
2023/09/07 10:41:04;;;;;;;13.88;3.67;;;28.50;99.90;;;;;;5013455;28;20049;-49
2023/09/07 10:43:31;;;;;;;13.23;3.22;;;28.50;99.90;;;;;;5013091;28;20433;-49
2023/09/07 10:45:58;;;;;;;;;;;28.60;99.90;;;;;;5013874;28;20069;-49
2023/09/07 10:48:25;;;;;;;14.77;4.20;;;28.60;99.90;;;;;;5013289;28;19909;-48
2023/09/07 10:50:51;;;;;;;17.77;3.97;;;28.60;99.90;;;;;;5013909;28;20117;-48
2023/09/07 10:53:34;;;;;;;13.95;4.18;;;28.70;99.90;;;;;;5013215;28;20108;-50
2023/09/07 10:56:03;;;;;;;18.27;5.20;;;28.70;99.90;;;;;;4999406;28;20064;-48
2023/09/07 10:58:40;;;;;;;15.05;5.25;;;28.70;99.90;;;;;;5011443;28;20018;-49
2023/09/07 11:01:07;;;;;;;11.10;3.78;;;28.70;99.90;;;;;;5013199;28;20053;-49
2023/09/07 11:03:33;;;;;;;8.80;3.13;;;28.70;99.90;;;;;;5013208;28;20033;-50
2023/09/07 11:06:03;;;;;;;11.00;3.70;;;28.70;99.90;;;;;;5013170;28;20034;-49
2023/09/07 11:08:33;;;;;;;11.88;2.92;;;28.70;99.90;;;;;;5011598;28;20057;-48
2023/09/07 11:11:02;;;;;;;14.43;4.13;;;28.70;99.90;;;;;;5012798;28;20061;-49
2023/09/07 11:13:28;;;;;;;12.10;3.95;;;28.70;99.90;;;;;;5011903;28;20029;-49
2023/09/07 11:16:03;;;;;;;15.45;3.53;;;28.70;99.90;;;;;;5109903;27;20381;-50
2023/09/07 11:18:30;;;;;;;16.88;3.72;;;28.70;99.90;;;;;;5109836;28;20045;-50
2023/09/07 11:20:56;;;;;;;23.15;6.07;;;28.70;99.90;;;;;;5109662;28;20077;-50
2023/09/07 11:23:23;;;;;;;12.93;4.35;;;28.80;99.90;;;;;;5110008;28;20024;-52
2023/09/07 11:25:50;;;;;;;12.80;3.45;;;28.80;99.90;;;;;;5109781;28;20031;-51
2023/09/07 11:28:18;;;;;;;13.95;3.55;;;28.80;99.90;;;;;;5109603;28;20443;-50
2023/09/07 11:30:54;;;;;;;13.13;3.92;;;28.80;99.90;;;;;;5109869;28;20023;-50
2023/09/07 11:33:21;;;;;;;10.40;3.23;;;28.80;99.90;;;;;;5109657;28;20024;-48
2023/09/07 11:35:47;;;;;;;7.32;2.90;;;28.80;99.90;;;;;;5109539;28;20036;-50
2023/09/07 11:38:15;;;;;;;9.82;2.90;;;28.80;99.90;;;;;;5109509;28;20039;-48
2023/09/07 11:40:45;;;;;;;11.48;3.72;;;28.90;99.90;;;;;;5109601;28;20059;-48
2023/09/07 11:43:15;;;;;;;12.80;3.55;;;28.90;99.90;;;;;;5109348;28;20016;-48
2023/09/07 11:45:42;;;;;;;7.60;3.85;;;29.00;99.90;;;;;;5109353;28;20047;-49
2023/09/07 11:48:08;;;;;;;10.95;2.75;;;29.00;99.90;;;;;;5109335;28;20054;-49
2023/09/07 11:50:35;;;;;;;14.65;3.40;;;29.10;99.90;;;;;;5109413;28;20035;-49
2023/09/07 11:53:01;;;;;;;10.77;3.58;;;29.20;99.90;;;;;;5109272;28;20032;-49
2023/09/07 11:55:27;;;;;;;8.77;2.70;;;29.20;99.90;;;;;;5109311;28;20349;-49
2023/09/07 11:57:53;;;;;;;6.38;2.72;;;29.20;99.90;;;;;;5109240;28;20502;-49
2023/09/07 12:00:19;;;;;;;6.80;3.35;;;29.20;99.90;;;;;;5109004;28;20508;-50
2023/09/07 12:02:45;;;;;;;7.20;2.92;;;29.20;99.90;;;;;;5109016;28;20097;-49
2023/09/07 12:05:14;;;;;;;7.05;3.08;;;29.20;99.90;;;;;;5108884;28;20058;-49
2023/09/07 12:07:40;;;;;;;7.65;3.53;;;29.30;99.90;;;;;;5108872;28;20028;-49
2023/09/07 12:10:10;;;;;;;7.40;3.20;;;29.20;99.90;;;;;;5107732;28;20032;-49
2023/09/07 12:12:39;;;;;;;8.38;3.05;;;29.30;99.90;;;;;;5108573;28;20030;-49
2023/09/07 12:15:05;;;;;;;7.10;2.90;;;29.30;99.90;;;;;;5108180;28;20046;-49
2023/09/07 12:17:32;;;;;;;7.55;2.55;;;29.30;99.90;;;;;;5108573;28;20065;-50
2023/09/07 12:19:57;;;;;;;7.20;2.80;;;29.20;99.90;;;;;;5107610;28;20024;-48
2023/09/07 12:22:23;;;;;;;8.73;3.35;;;29.20;99.90;;;;;;5108469;28;20030;-48
2023/09/07 12:24:49;;;;;;;7.60;3.08;;;29.20;99.90;;;;;;5108485;28;20467;-49
2023/09/07 12:27:15;;;;;;;10.80;4.22;;;29.10;99.90;;;;;;5094399;28;20111;-49
2023/09/07 12:29:41;;;;;;;10.52;3.70;;;29.00;99.90;;;;;;5094861;28;20035;-49
2023/09/07 12:32:07;;;;;;;6.55;3.58;;;29.00;99.90;;;;;;5093426;28;20035;-49
2023/09/07 12:34:33;;;;;;;6.07;2.97;;;29.00;99.90;;;;;;5094720;28;20047;-50
2023/09/07 12:36:59;;;;;;;7.45;3.50;;;29.10;99.90;;;;;;5094723;28;20414;-49
2023/09/07 12:39:25;;;;;;;5.45;3.03;;;29.10;99.90;;;;;;5093970;28;20094;-49